Marcolorado — V2EY5 — position and weather

sailwx.info

Track history (hours):
 
Tides and Currents Weather Stations Pressure Air Temp Water Temp Dewpoint Dewpoint Depression Visibility Wind Speed Wind Dir Waves Ship Positions

Marcolorado

Last reported at 2016-May-01 09:24 UTC. Time now 2016-May-05 12:21 UTC.
Position N 35°26' E 034°55'.

Length 185 m; draft 6.2 m.

Type: Ship. MMSI: 305599000.

Date/timePositionNaut miles runAvg speedWind from/ knotsBaromVisibWave heightAir tempDewpointWater temp
2016-May-01 09:24N 35°26' E 034°55'1012.3
2016-May-01 08:33N 35°18' E 034°48'2612.4
2016-May-01 06:28N 34°56' E 034°31'1213.4
2016-May-01 05:33N 34°46' E 034°22'1413.7
2016-May-01 04:33N 34°35' E 034°13'1513.8
2016-May-01 03:30N 34°23' E 034°03'1313.8
2016-May-01 02:33N 34°12' E 033°54'1513.2
2016-May-01 01:26N 33°59' E 033°44'1112.1
2016-May-01 00:33N 33°51' E 033°37'1211.8
2016-Apr-30 23:33N 33°41' E 033°29'1212.1
2016-Apr-30 22:33N 33°31' E 033°21'1212.3
2016-Apr-30 21:33N 33°21' E 033°12'1312.5
2016-Apr-30 20:33N 33°10' E 033°04'1312.8
2016-Apr-30 19:33N 32°60' E 032°55'1312.7
2016-Apr-30 18:33N 32°49' E 032°47'1312.6
2016-Apr-30 17:33N 32°39' E 032°39'1312.6
2016-Apr-30 16:33N 32°28' E 032°30'1312.8
2016-Apr-30 15:33N 32°18' E 032°22'1313.0
2016-Apr-30 14:33N 32°07' E 032°13'1313.4
2016-Apr-30 13:33N 31°55' E 032°05'1313.5
2016-Apr-30 12:33N 31°44' E 031°57'1212.4
2016-Apr-30 11:33N 31°35' E 031°46'2 1.6
2016-Apr-30 10:31N 31°36' E 031°44'0 0.0
2016-Apr-30 09:25N 31°36' E 031°44'0 0.0
2016-Apr-30 07:27N 31°36' E 031°44'0 0.0
2016-Apr-30 06:33N 31°36' E 031°44'0 0.0
2016-Apr-30 05:19N 31°36' E 031°44'0 0.0
2016-Apr-30 04:27N 31°36' E 031°44'0 0.0
2016-Apr-29 22:33N 31°36' E 031°44'  
2016-Apr-25 19:22N 31°27' E 031°46'0 0.0
2016-Apr-25 15:13N 31°27' E 031°46'0 0.0
2016-Apr-25 13:31N 31°27' E 031°46'2 0.1
2016-Apr-24 18:22N 31°29' E 031°45'6 7.4
2016-Apr-24 17:33N 31°34' E 031°47'7 7.1
2016-Apr-24 16:32N 31°41' E 031°43'1 0.7
2016-Apr-24 15:27N 31°41' E 031°43'0 0.0
2016-Apr-24 14:33N 31°41' E 031°43'0 0.0
2016-Apr-24 13:33N 31°41' E 031°43'0 0.0
2016-Apr-24 12:33N 31°41' E 031°43'0 0.0
2016-Apr-24 11:33N 31°41' E 031°43'0 0.0
2016-Apr-24 10:30N 31°41' E 031°43'0 0.0
2016-Apr-24 09:30N 31°41' E 031°43'0 0.0
2016-Apr-24 08:24N 31°41' E 031°43'0 0.0
2016-Apr-24 07:33N 31°41' E 031°43'0 0.0
2016-Apr-24 02:18N 31°41' E 031°43'0 0.0
2016-Apr-23 21:30N 31°41' E 031°43'0 0.0
2016-Apr-23 20:27N 31°41' E 031°43'0 0.0
2016-Apr-23 18:33N 31°41' E 031°43'0 0.0
2016-Apr-23 17:27N 31°41' E 031°43'0 0.0
2016-Apr-23 16:33N 31°41' E 031°43'0 0.0
2016-Apr-23 15:33N 31°41' E 031°43'0 0.0
2016-Apr-23 14:33N 31°41' E 031°43'0 0.0
2016-Apr-23 11:24N 31°41' E 031°43'0 0.0
2016-Apr-23 10:33N 31°41' E 031°43'0 0.0
2016-Apr-23 09:33N 31°41' E 031°43'0 0.0
2016-Apr-23 08:27N 31°41' E 031°43'0 0.0
2016-Apr-23 07:18N 31°41' E 031°43'0 0.0
2016-Apr-23 06:33N 31°41' E 031°43'0 0.0
2016-Apr-22 22:24N 31°41' E 031°43'0 0.0
2016-Apr-22 21:33N 31°41' E 031°43'0 0.0
2016-Apr-22 20:33N 31°41' E 031°43'0 0.0
2016-Apr-22 19:12N 31°41' E 031°43'0 0.0
2016-Apr-22 18:33N 31°41' E 031°43'0 0.0
2016-Apr-22 17:27N 31°41' E 031°43'0 0.0
2016-Apr-22 16:27N 31°41' E 031°43'0 0.0
2016-Apr-22 15:30N 31°41' E 031°43'0 0.0
2016-Apr-22 13:33N 31°41' E 031°43'0 0.0
2016-Apr-22 12:33N 31°41' E 031°43'0 0.0
2016-Apr-22 11:33N 31°41' E 031°43'0 0.0
2016-Apr-22 10:33N 31°41' E 031°43'0 0.0
2016-Apr-22 09:33N 31°41' E 031°43'0 0.0
2016-Apr-22 08:33N 31°41' E 031°43'0 0.0
2016-Apr-22 07:27N 31°41' E 031°43'0 0.0
2016-Apr-22 04:33N 31°41' E 031°43'0 0.0
2016-Apr-22 02:33N 31°41' E 031°43'0 0.1
2016-Apr-22 01:33N 31°41' E 031°43'0 0.0
2016-Apr-21 22:30N 31°41' E 031°43'0 0.0
2016-Apr-21 21:33N 31°41' E 031°43'0 0.0
2016-Apr-21 20:33N 31°41' E 031°43'0 0.0
2016-Apr-21 19:12N 31°41' E 031°43'0 0.0
2016-Apr-21 18:33N 31°41' E 031°43'0 0.0
2016-Apr-21 17:27N 31°41' E 031°43'0 0.0
2016-Apr-21 16:30N 31°41' E 031°43'0 0.0
2016-Apr-21 15:15N 31°41' E 031°43'  
Track history (hours):
 
Tides and Currents Weather Stations Pressure Air Temp Water Temp Dewpoint Dewpoint Depression Visibility Wind Speed Wind Dir Waves Ship Positions

Marcolorado

Last reported at 2016-May-01 09:24 UTC. Time now 2016-May-05 12:21 UTC.
Position N 35°26' E 034°55'.

Length 185 m; draft 6.2 m.

Type: Ship. MMSI: 305599000.

Date/timePositionNaut miles runAvg speedWind from/ knotsBaromVisibWave heightAir tempDewpointWater temp
2016-May-01 09:24N 35°26' E 034°55'1012.3
2016-May-01 08:33N 35°18' E 034°48'2612.4
2016-May-01 06:28N 34°56' E 034°31'1213.4
2016-May-01 05:33N 34°46' E 034°22'1413.7
2016-May-01 04:33N 34°35' E 034°13'1513.8
2016-May-01 03:30N 34°23' E 034°03'1313.8
2016-May-01 02:33N 34°12' E 033°54'1513.2
2016-May-01 01:26N 33°59' E 033°44'1112.1
2016-May-01 00:33N 33°51' E 033°37'1211.8
2016-Apr-30 23:33N 33°41' E 033°29'1212.1
2016-Apr-30 22:33N 33°31' E 033°21'1212.3
2016-Apr-30 21:33N 33°21' E 033°12'1312.5
2016-Apr-30 20:33N 33°10' E 033°04'1312.8
2016-Apr-30 19:33N 32°60' E 032°55'1312.7
2016-Apr-30 18:33N 32°49' E 032°47'1312.6
2016-Apr-30 17:33N 32°39' E 032°39'1312.6
2016-Apr-30 16:33N 32°28' E 032°30'1312.8
2016-Apr-30 15:33N 32°18' E 032°22'1313.0
2016-Apr-30 14:33N 32°07' E 032°13'1313.4
2016-Apr-30 13:33N 31°55' E 032°05'1313.5
2016-Apr-30 12:33N 31°44' E 031°57'1212.4
2016-Apr-30 11:33N 31°35' E 031°46'2 1.6
2016-Apr-30 10:31N 31°36' E 031°44'0 0.0
2016-Apr-30 09:25N 31°36' E 031°44'0 0.0
2016-Apr-30 07:27N 31°36' E 031°44'0 0.0
2016-Apr-30 06:33N 31°36' E 031°44'0 0.0
2016-Apr-30 05:19N 31°36' E 031°44'0 0.0
2016-Apr-30 04:27N 31°36' E 031°44'0 0.0
2016-Apr-29 22:33N 31°36' E 031°44'  
2016-Apr-25 19:22N 31°27' E 031°46'0 0.0
2016-Apr-25 15:13N 31°27' E 031°46'0 0.0
2016-Apr-25 13:31N 31°27' E 031°46'2 0.1
2016-Apr-24 18:22N 31°29' E 031°45'6 7.4
2016-Apr-24 17:33N 31°34' E 031°47'7 7.1
2016-Apr-24 16:32N 31°41' E 031°43'1 0.7
2016-Apr-24 15:27N 31°41' E 031°43'0 0.0
2016-Apr-24 14:33N 31°41' E 031°43'0 0.0
2016-Apr-24 13:33N 31°41' E 031°43'0 0.0
2016-Apr-24 12:33N 31°41' E 031°43'0 0.0
2016-Apr-24 11:33N 31°41' E 031°43'0 0.0
2016-Apr-24 10:30N 31°41' E 031°43'0 0.0
2016-Apr-24 09:30N 31°41' E 031°43'0 0.0
2016-Apr-24 08:24N 31°41' E 031°43'0 0.0
2016-Apr-24 07:33N 31°41' E 031°43'0 0.0
2016-Apr-24 02:18N 31°41' E 031°43'0 0.0
2016-Apr-23 21:30N 31°41' E 031°43'0 0.0
2016-Apr-23 20:27N 31°41' E 031°43'0 0.0
2016-Apr-23 18:33N 31°41' E 031°43'0 0.0
2016-Apr-23 17:27N 31°41' E 031°43'0 0.0
2016-Apr-23 16:33N 31°41' E 031°43'0 0.0
2016-Apr-23 15:33N 31°41' E 031°43'0 0.0
2016-Apr-23 14:33N 31°41' E 031°43'0 0.0
2016-Apr-23 11:24N 31°41' E 031°43'0 0.0
2016-Apr-23 10:33N 31°41' E 031°43'0 0.0
2016-Apr-23 09:33N 31°41' E 031°43'0 0.0
2016-Apr-23 08:27N 31°41' E 031°43'0 0.0
2016-Apr-23 07:18N 31°41' E 031°43'0 0.0
2016-Apr-23 06:33N 31°41' E 031°43'0 0.0
2016-Apr-22 22:24N 31°41' E 031°43'0 0.0
2016-Apr-22 21:33N 31°41' E 031°43'0 0.0
2016-Apr-22 20:33N 31°41' E 031°43'0 0.0
2016-Apr-22 19:12N 31°41' E 031°43'0 0.0
2016-Apr-22 18:33N 31°41' E 031°43'0 0.0
2016-Apr-22 17:27N 31°41' E 031°43'0 0.0
2016-Apr-22 16:27N 31°41' E 031°43'0 0.0
2016-Apr-22 15:30N 31°41' E 031°43'0 0.0
2016-Apr-22 13:33N 31°41' E 031°43'0 0.0
2016-Apr-22 12:33N 31°41' E 031°43'0 0.0
2016-Apr-22 11:33N 31°41' E 031°43'0 0.0
2016-Apr-22 10:33N 31°41' E 031°43'0 0.0
2016-Apr-22 09:33N 31°41' E 031°43'0 0.0
2016-Apr-22 08:33N 31°41' E 031°43'0 0.0
2016-Apr-22 07:27N 31°41' E 031°43'0 0.0
2016-Apr-22 04:33N 31°41' E 031°43'0 0.0
2016-Apr-22 02:33N 31°41' E 031°43'0 0.1
2016-Apr-22 01:33N 31°41' E 031°43'0 0.0
2016-Apr-21 22:30N 31°41' E 031°43'0 0.0
2016-Apr-21 21:33N 31°41' E 031°43'0 0.0
2016-Apr-21 20:33N 31°41' E 031°43'0 0.0
2016-Apr-21 19:12N 31°41' E 031°43'0 0.0
2016-Apr-21 18:33N 31°41' E 031°43'0 0.0
2016-Apr-21 17:27N 31°41' E 031°43'0 0.0
2016-Apr-21 16:30N 31°41' E 031°43'0 0.0
2016-Apr-21 15:15N 31°41' E 031°43'  

Dump ship's entire track history